sensor_id;sensor_type;location;lat;lon;timestamp;temperature;humidity
19646;DHT22;9971;52.446;13.452;2023-04-15T00:14:21;17.20;99.90
19646;DHT22;9971;52.446;13.452;2023-04-15T00:44:24;17.30;99.90
19646;DHT22;9971;52.446;13.452;2023-04-15T01:14:26;17.50;99.90
19646;DHT22;9971;52.446;13.452;2023-04-15T01:44:29;17.50;99.90
19646;DHT22;9971;52.446;13.452;2023-04-15T02:14:31;17.60;99.90
19646;DHT22;9971;52.446;13.452;2023-04-15T02:44:34;17.70;99.90
19646;DHT22;9971;52.446;13.452;2023-04-15T03:14:37;17.70;99.90
19646;DHT22;9971;52.446;13.452;2023-04-15T03:44:40;17.70;99.90
19646;DHT22;9971;52.446;13.452;2023-04-15T04:14:43;17.70;99.90
19646;DHT22;9971;52.446;13.452;2023-04-15T04:44:45;17.80;99.90
19646;DHT22;9971;52.446;13.452;2023-04-15T05:14:48;17.80;99.90
19646;DHT22;9971;52.446;13.452;2023-04-15T05:44:51;17.80;99.90
19646;DHT22;9971;52.446;13.452;2023-04-15T06:14:54;17.80;99.90
19646;DHT22;9971;52.446;13.452;2023-04-15T06:19:57;17.70;99.90
19646;DHT22;9971;52.446;13.452;2023-04-15T06:50:00;15.40;99.90
19646;DHT22;9971;52.446;13.452;2023-04-15T06:55:02;16.30;99.90
19646;DHT22;9971;52.446;13.452;2023-04-15T07:25:06;15.00;99.90
19646;DHT22;9971;52.446;13.452;2023-04-15T07:55:08;16.00;99.90
19646;DHT22;9971;52.446;13.452;2023-04-15T08:25:10;16.60;99.90
19646;DHT22;9971;52.446;13.452;2023-04-15T08:55:13;17.00;99.90
19646;DHT22;9971;52.446;13.452;2023-04-15T09:00:16;17.20;99.90
19646;DHT22;9971;52.446;13.452;2023-04-15T09:30:18;15.30;99.90
19646;DHT22;9971;52.446;13.452;2023-04-15T10:00:20;16.20;99.90
19646;DHT22;9971;52.446;13.452;2023-04-15T10:05:23;16.80;99.90
19646;DHT22;9971;52.446;13.452;2023-04-15T10:10:25;14.80;99.90
19646;DHT22;9971;52.446;13.452;2023-04-15T10:15:28;13.70;99.90
19646;DHT22;9971;52.446;13.452;2023-04-15T10:20:30;13.20;99.90
19646;DHT22;9971;52.446;13.452;2023-04-15T10:25:34;12.90;99.90
19646;DHT22;9971;52.446;13.452;2023-04-15T10:55:36;12.70;99.90
19646;DHT22;9971;52.446;13.452;2023-04-15T11:00:39;14.60;99.90
19646;DHT22;9971;52.446;13.452;2023-04-15T11:05:50;13.90;99.90
19646;DHT22;9971;52.446;13.452;2023-04-15T11:10:52;13.40;99.90
19646;DHT22;9971;52.446;13.452;2023-04-15T11:15:55;13.10;99.90
19646;DHT22;9971;52.446;13.452;2023-04-15T11:20:57;12.80;99.90
19646;DHT22;9971;52.446;13.452;2023-04-15T11:25:59;12.70;99.90
19646;DHT22;9971;52.446;13.452;2023-04-15T11:31:06;12.60;99.90
19646;DHT22;9971;52.446;13.452;2023-04-15T11:36:07;12.60;99.90
19646;DHT22;9971;52.446;13.452;2023-04-15T11:41:10;12.60;99.90
19646;DHT22;9971;52.446;13.452;2023-04-15T11:46:12;12.50;99.90
19646;DHT22;9971;52.446;13.452;2023-04-15T11:51:14;12.50;99.90
19646;DHT22;9971;52.446;13.452;2023-04-15T11:56:18;12.60;99.90
19646;DHT22;9971;52.446;13.452;2023-04-15T12:26:27;12.60;99.90
19646;DHT22;9971;52.446;13.452;2023-04-15T12:31:30;14.40;99.90
19646;DHT22;9971;52.446;13.452;2023-04-15T12:36:32;13.80;99.90
19646;DHT22;9971;52.446;13.452;2023-04-15T12:41:35;13.40;99.90
19646;DHT22;9971;52.446;13.452;2023-04-15T12:46:37;13.30;99.90
19646;DHT22;9971;52.446;13.452;2023-04-15T12:51:40;13.20;99.90
19646;DHT22;9971;52.446;13.452;2023-04-15T12:56:42;13.20;99.90
19646;DHT22;9971;52.446;13.452;2023-04-15T13:01:47;13.20;99.90
19646;DHT22;9971;52.446;13.452;2023-04-15T13:06:49;13.10;99.90
19646;DHT22;9971;52.446;13.452;2023-04-15T13:11:52;13.10;99.90
19646;DHT22;9971;52.446;13.452;2023-04-15T13:16:54;13.10;99.90
19646;DHT22;9971;52.446;13.452;2023-04-15T13:21:56;13.10;99.90
19646;DHT22;9971;52.446;13.452;2023-04-15T13:27:00;13.20;99.90
19646;DHT22;9971;52.446;13.452;2023-04-15T13:32:03;13.10;99.90
19646;DHT22;9971;52.446;13.452;2023-04-15T13:37:05;13.10;99.90
19646;DHT22;9971;52.446;13.452;2023-04-15T13:42:08;13.10;99.90
19646;DHT22;9971;52.446;13.452;2023-04-15T13:47:10;13.00;99.90
19646;DHT22;9971;52.446;13.452;2023-04-15T13:52:12;13.00;99.90
19646;DHT22;9971;52.446;13.452;2023-04-15T13:57:14;13.00;99.90
19646;DHT22;9971;52.446;13.452;2023-04-15T14:02:17;13.00;99.90
19646;DHT22;9971;52.446;13.452;2023-04-15T14:07:20;13.00;99.90
19646;DHT22;9971;52.446;13.452;2023-04-15T14:12:23;12.90;99.90
19646;DHT22;9971;52.446;13.452;2023-04-15T14:17:26;12.90;99.90
19646;DHT22;9971;52.446;13.452;2023-04-15T14:22:29;12.90;99.90
19646;DHT22;9971;52.446;13.452;2023-04-15T14:27:31;12.90;99.90
19646;DHT22;9971;52.446;13.452;2023-04-15T14:32:34;12.90;99.90
19646;DHT22;9971;52.446;13.452;2023-04-15T14:37:36;12.90;99.90
19646;DHT22;9971;52.446;13.452;2023-04-15T14:42:40;12.90;99.90
19646;DHT22;9971;52.446;13.452;2023-04-15T14:47:43;12.90;99.90
19646;DHT22;9971;52.446;13.452;2023-04-15T14:52:46;12.90;99.90
19646;DHT22;9971;52.446;13.452;2023-04-15T14:57:49;12.90;99.90
19646;DHT22;9971;52.446;13.452;2023-04-15T15:02:52;12.80;99.90
19646;DHT22;9971;52.446;13.452;2023-04-15T15:07:54;12.80;99.90
19646;DHT22;9971;52.446;13.452;2023-04-15T15:12:57;12.80;99.90
19646;DHT22;9971;52.446;13.452;2023-04-15T15:18:00;12.80;99.90
19646;DHT22;9971;52.446;13.452;2023-04-15T15:23:02;12.80;99.90
19646;DHT22;9971;52.446;13.452;2023-04-15T15:28:05;12.90;99.90
19646;DHT22;9971;52.446;13.452;2023-04-15T15:33:07;12.90;99.90
19646;DHT22;9971;52.446;13.452;2023-04-15T15:38:10;12.90;99.90
19646;DHT22;9971;52.446;13.452;2023-04-15T15:43:12;12.90;99.90
19646;DHT22;9971;52.446;13.452;2023-04-15T15:48:14;12.90;99.90
19646;DHT22;9971;52.446;13.452;2023-04-15T15:53:16;12.90;99.90
19646;DHT22;9971;52.446;13.452;2023-04-15T15:58:19;12.90;99.90
19646;DHT22;9971;52.446;13.452;2023-04-15T16:03:21;12.90;99.90
19646;DHT22;9971;52.446;13.452;2023-04-15T16:08:23;12.90;99.90
19646;DHT22;9971;52.446;13.452;2023-04-15T16:13:26;12.90;99.90
19646;DHT22;9971;52.446;13.452;2023-04-15T16:18:27;12.80;99.90
19646;DHT22;9971;52.446;13.452;2023-04-15T16:23:30;12.80;99.90
19646;DHT22;9971;52.446;13.452;2023-04-15T16:28:33;12.80;99.90
19646;DHT22;9971;52.446;13.452;2023-04-15T16:33:36;12.70;99.90
19646;DHT22;9971;52.446;13.452;2023-04-15T16:38:39;12.70;99.90
19646;DHT22;9971;52.446;13.452;2023-04-15T16:43:41;12.70;99.90
19646;DHT22;9971;52.446;13.452;2023-04-15T16:48:44;12.70;99.90
19646;DHT22;9971;52.446;13.452;2023-04-15T16:53:47;12.70;99.90
19646;DHT22;9971;52.446;13.452;2023-04-15T16:58:48;12.70;99.90
19646;DHT22;9971;52.446;13.452;2023-04-15T17:03:51;12.70;99.90
19646;DHT22;9971;52.446;13.452;2023-04-15T17:08:54;12.70;99.90
19646;DHT22;9971;52.446;13.452;2023-04-15T17:13:57;12.70;99.90
19646;DHT22;9971;52.446;13.452;2023-04-15T17:19:00;12.70;99.90
19646;DHT22;9971;52.446;13.452;2023-04-15T17:24:02;12.70;99.90
19646;DHT22;9971;52.446;13.452;2023-04-15T17:29:05;12.60;99.90
19646;DHT22;9971;52.446;13.452;2023-04-15T17:34:08;12.60;99.90
19646;DHT22;9971;52.446;13.452;2023-04-15T17:39:10;12.60;99.90
19646;DHT22;9971;52.446;13.452;2023-04-15T17:44:13;12.60;99.90
19646;DHT22;9971;52.446;13.452;2023-04-15T17:49:15;12.60;99.90
19646;DHT22;9971;52.446;13.452;2023-04-15T17:54:19;12.50;99.90
19646;DHT22;9971;52.446;13.452;2023-04-15T17:59:22;12.50;99.90
19646;DHT22;9971;52.446;13.452;2023-04-15T18:04:26;12.50;99.90
19646;DHT22;9971;52.446;13.452;2023-04-15T18:09:29;12.50;99.90
19646;DHT22;9971;52.446;13.452;2023-04-15T18:14:31;12.40;99.90
19646;DHT22;9971;52.446;13.452;2023-04-15T18:19:34;12.40;99.90
19646;DHT22;9971;52.446;13.452;2023-04-15T18:24:36;12.40;99.90
19646;DHT22;9971;52.446;13.452;2023-04-15T18:29:39;12.40;99.90
19646;DHT22;9971;52.446;13.452;2023-04-15T18:34:43;12.30;99.90
19646;DHT22;9971;52.446;13.452;2023-04-15T18:39:45;12.30;99.90
19646;DHT22;9971;52.446;13.452;2023-04-15T18:44:48;12.30;99.90
19646;DHT22;9971;52.446;13.452;2023-04-15T18:49:50;12.30;99.90
19646;DHT22;9971;52.446;13.452;2023-04-15T18:54:53;12.30;99.90
19646;DHT22;9971;52.446;13.452;2023-04-15T18:59:55;12.20;99.90
19646;DHT22;9971;52.446;13.452;2023-04-15T19:04:58;12.20;99.90
19646;DHT22;9971;52.446;13.452;2023-04-15T19:10:02;12.20;99.90
19646;DHT22;9971;52.446;13.452;2023-04-15T19:15:03;12.20;99.90
19646;DHT22;9971;52.446;13.452;2023-04-15T19:20:06;12.20;99.90
19646;DHT22;9971;52.446;13.452;2023-04-15T19:25:09;12.20;99.90
19646;DHT22;9971;52.446;13.452;2023-04-15T19:30:12;12.10;99.90
19646;DHT22;9971;52.446;13.452;2023-04-15T19:35:14;12.20;99.90
19646;DHT22;9971;52.446;13.452;2023-04-15T19:40:17;12.20;99.90
19646;DHT22;9971;52.446;13.452;2023-04-15T19:45:19;12.10;99.90
19646;DHT22;9971;52.446;13.452;2023-04-15T19:50:23;12.10;99.90
19646;DHT22;9971;52.446;13.452;2023-04-15T19:55:25;12.20;99.90
19646;DHT22;9971;52.446;13.452;2023-04-15T20:00:29;12.10;99.90
19646;DHT22;9971;52.446;13.452;2023-04-15T20:05:30;12.10;99.90
19646;DHT22;9971;52.446;13.452;2023-04-15T20:10:35;12.10;99.90
19646;DHT22;9971;52.446;13.452;2023-04-15T20:15:38;12.10;99.90
19646;DHT22;9971;52.446;13.452;2023-04-15T20:20:40;12.10;99.90
19646;DHT22;9971;52.446;13.452;2023-04-15T20:25:43;12.10;99.90
19646;DHT22;9971;52.446;13.452;2023-04-15T20:30:45;12.00;99.90
19646;DHT22;9971;52.446;13.452;2023-04-15T20:35:48;12.00;99.90
19646;DHT22;9971;52.446;13.452;2023-04-15T20:40:51;12.00;99.90
19646;DHT22;9971;52.446;13.452;2023-04-15T20:45:54;12.10;99.90
19646;DHT22;9971;52.446;13.452;2023-04-15T20:50:55;12.00;99.90
19646;DHT22;9971;52.446;13.452;2023-04-15T20:55:58;12.00;99.90
19646;DHT22;9971;52.446;13.452;2023-04-15T21:01:01;12.00;99.90
19646;DHT22;9971;52.446;13.452;2023-04-15T21:31:03;12.00;99.90
19646;DHT22;9971;52.446;13.452;2023-04-15T21:36:06;14.10;99.90
19646;DHT22;9971;52.446;13.452;2023-04-15T21:41:09;13.00;99.90
19646;DHT22;9971;52.446;13.452;2023-04-15T21:46:11;12.50;99.90
19646;DHT22;9971;52.446;13.452;2023-04-15T21:51:14;12.30;99.90
19646;DHT22;9971;52.446;13.452;2023-04-15T22:21:17;12.20;99.90
19646;DHT22;9971;52.446;13.452;2023-04-15T22:26:19;14.30;99.90
19646;DHT22;9971;52.446;13.452;2023-04-15T22:31:22;13.30;99.90
19646;DHT22;9971;52.446;13.452;2023-04-15T23:01:25;12.70;99.90
19646;DHT22;9971;52.446;13.452;2023-04-15T23:06:28;14.60;99.90
19646;DHT22;9971;52.446;13.452;2023-04-15T23:11:31;13.50;99.90
19646;DHT22;9971;52.446;13.452;2023-04-15T23:16:34;12.90;99.90
19646;DHT22;9971;52.446;13.452;2023-04-15T23:21:36;12.50;99.90
19646;DHT22;9971;52.446;13.452;2023-04-15T23:51:39;12.30;99.90
